Time;durP1;ratioP1;P1;durP2;ratioP2;P2;SDS_P1;SDS_P2;PMS_P1;PMS_P2;Temp;Humidity;BMP_temperature;BMP_pressure;BME280_temperature;BME280_humidity;BME280_pressure;Samples;Min_cycle;Max_cycle;Signal;HPM_P1;HPM_P2
2023/04/07 00:01:11;;;;;;;0.98;0.90;;;17.90;47.60;;;;;;6339341;22;20135;-81
2023/04/07 00:03:39;;;;;;;1.17;0.93;;;17.90;48.30;;;;;;6339353;22;20206;-82
2023/04/07 00:06:05;;;;;;;1.35;0.73;;;17.90;47.60;;;;;;6339476;22;20253;-80
2023/04/07 00:08:31;;;;;;;1.13;0.80;;;17.90;47.70;;;;;;6339664;22;20212;-82
2023/04/07 00:10:57;;;;;;;0.93;0.93;;;17.90;47.70;;;;;;6311885;22;20505;-82
2023/04/07 00:13:23;;;;;;;0.88;0.85;;;17.90;47.60;;;;;;6338957;22;20201;-81
2023/04/07 00:15:49;;;;;;;1.85;0.85;;;17.90;47.70;;;;;;6339262;22;20181;-82
2023/04/07 00:18:15;;;;;;;0.98;0.88;;;17.90;47.70;;;;;;6339334;22;20184;-82
2023/04/07 00:20:41;;;;;;;2.30;0.95;;;17.90;47.80;;;;;;6339336;22;20155;-82
2023/04/07 00:23:07;;;;;;;0.98;0.88;;;17.90;47.80;;;;;;6339438;22;20559;-81
2023/04/07 00:25:33;;;;;;;0.88;0.88;;;17.90;47.80;;;;;;6311604;22;20162;-82
2023/04/07 00:27:59;;;;;;;1.00;0.90;;;17.90;47.80;;;;;;6286967;22;20151;-80
2023/04/07 00:30:25;;;;;;;1.00;0.75;;;17.90;48.00;;;;;;6314062;22;20207;-81
2023/04/07 00:32:55;;;;;;;0.80;0.80;;;17.90;47.90;;;;;;6346320;22;20127;-80
2023/04/07 00:35:21;;;;;;;0.80;0.80;;;17.90;47.80;;;;;;6266445;22;20155;-80
2023/04/07 00:37:47;;;;;;;1.42;0.75;;;17.90;47.90;;;;;;6346362;22;20510;-81
2023/04/07 00:40:13;;;;;;;0.75;0.68;;;17.90;47.90;;;;;;6345301;22;20136;-80
2023/04/07 00:42:39;;;;;;;1.42;1.00;;;17.90;47.90;;;;;;6346054;22;20139;-82
2023/04/07 00:45:06;;;;;;;0.85;0.80;;;17.90;47.90;;;;;;6345918;22;20563;-81
2023/04/07 00:47:31;;;;;;;0.90;0.90;;;17.90;47.90;;;;;;6345712;22;20155;-81
2023/04/07 00:49:57;;;;;;;0.82;0.82;;;17.90;47.80;;;;;;6345835;22;20135;-81
2023/04/07 00:52:27;;;;;;;0.90;0.85;;;17.90;48.00;;;;;;6345916;22;20455;-82
2023/04/07 00:54:54;;;;;;;0.73;0.73;;;17.90;48.10;;;;;;6318748;22;20150;-82
2023/04/07 00:57:21;;;;;;;1.25;0.90;;;17.90;48.00;;;;;;6318681;22;20551;-81
2023/04/07 00:59:49;;;;;;;1.13;1.02;;;17.90;48.00;;;;;;6346459;22;20123;-81
2023/04/07 01:02:32;;;;;;;0.80;0.80;;;17.90;48.00;;;;;;6345948;22;20253;-81
2023/04/07 01:05:12;;;;;;;0.70;0.68;;;17.90;48.00;;;;;;6291811;22;20510;-81
2023/04/07 01:08:01;;;;;;;0.80;0.80;;;17.90;48.10;;;;;;6346136;22;20167;-83
2023/04/07 01:10:43;;;;;;;0.70;0.70;;;17.90;48.00;;;;;;6317595;22;20151;-80
2023/04/07 01:13:31;;;;;;;2.15;1.20;;;17.90;48.00;;;;;;6346466;22;20276;-81
2023/04/07 01:15:58;;;;;;;1.10;1.00;;;17.90;48.00;;;;;;6317921;22;20156;-80
2023/04/07 01:18:28;;;;;;;0.90;0.90;;;17.80;48.00;;;;;;6345703;22;20547;-82
2023/04/07 01:21:01;;;;;;;0.90;0.90;;;17.80;48.00;;;;;;6317633;22;20220;-81
2023/04/07 01:23:51;;;;;;;0.90;0.90;;;17.90;48.00;;;;;;6346757;22;20200;-81
2023/04/07 01:26:20;;;;;;;0.80;0.80;;;17.80;48.00;;;;;;6346039;22;20185;-81
2023/04/07 01:29:16;;;;;;;0.90;0.90;;;17.90;48.20;;;;;;6317592;22;20257;-81
2023/04/07 01:31:42;;;;;;;2.17;0.90;;;17.90;48.00;;;;;;6257162;22;20598;-82
2023/04/07 01:34:10;;;;;;;0.80;0.80;;;17.80;48.10;;;;;;6345298;22;20128;-80
2023/04/07 01:36:36;;;;;;;0.80;0.75;;;17.90;48.00;;;;;;6292601;22;20620;-81
2023/04/07 01:39:05;;;;;;;1.55;0.80;;;17.90;48.10;;;;;;6317943;22;20158;-82
2023/04/07 01:41:32;;;;;;;0.75;0.70;;;17.80;48.00;;;;;;6265727;22;20211;-81
2023/04/07 01:43:57;;;;;;;1.13;0.88;;;17.80;48.10;;;;;;6345713;22;20132;-82
2023/04/07 01:46:23;;;;;;;0.80;0.80;;;17.80;48.10;;;;;;6345244;22;20163;-81
2023/04/07 01:48:49;;;;;;;0.80;0.80;;;17.80;48.30;;;;;;6345108;22;20211;-81
2023/04/07 01:51:17;;;;;;;0.70;0.70;;;17.80;48.20;;;;;;6346028;22;20185;-82
2023/04/07 01:53:44;;;;;;;0.85;0.80;;;17.80;48.30;;;;;;6345577;22;20190;-80
2023/04/07 01:56:10;;;;;;;0.80;0.80;;;17.80;48.30;;;;;;6317813;22;20140;-81
2023/04/07 01:58:40;;;;;;;1.08;0.90;;;17.80;48.30;;;;;;6316947;22;20132;-80
2023/04/07 02:01:06;;;;;;;1.02;0.93;;;17.80;48.30;;;;;;6265606;22;20151;-79
2023/04/07 02:03:47;;;;;;;0.93;0.93;;;17.80;48.30;;;;;;6345013;22;20170;-80
2023/04/07 02:06:22;;;;;;;0.80;0.80;;;17.80;48.30;;;;;;6345120;22;20237;-81
2023/04/07 02:08:51;;;;;;;0.90;0.82;;;17.80;48.40;;;;;;6265306;22;20154;-83
2023/04/07 02:11:21;;;;;;;1.08;1.00;;;17.70;48.50;;;;;;6344962;22;20134;-82
2023/04/07 02:13:47;;;;;;;0.75;0.75;;;17.80;48.40;;;;;;6239471;22;20191;-82
2023/04/07 02:16:13;;;;;;;0.80;0.70;;;17.80;48.40;;;;;;6317110;22;20461;-83
2023/04/07 02:18:39;;;;;;;0.77;0.77;;;17.80;48.40;;;;;;6316443;22;20225;-82
2023/04/07 02:21:05;;;;;;;0.77;0.77;;;17.80;48.20;;;;;;6344904;22;20555;-82
2023/04/07 02:23:33;;;;;;;0.93;0.85;;;17.80;48.30;;;;;;6344191;22;20143;-82
2023/04/07 02:25:59;;;;;;;0.70;0.70;;;17.80;48.30;;;;;;6344270;22;20163;-81
2023/04/07 02:28:25;;;;;;;0.85;0.75;;;17.80;48.40;;;;;;6345120;22;20132;-81
2023/04/07 02:30:55;;;;;;;0.80;0.80;;;17.80;48.30;;;;;;6344968;22;20183;-82
2023/04/07 02:33:21;;;;;;;0.80;0.80;;;17.70;48.50;;;;;;6265297;22;20148;-81
2023/04/07 02:35:47;;;;;;;0.70;0.70;;;17.80;48.60;;;;;;6344179;22;20462;-82
2023/04/07 02:38:13;;;;;;;0.80;0.80;;;17.80;48.40;;;;;;6344496;22;20570;-81
2023/04/07 02:40:39;;;;;;;0.85;0.70;;;17.80;48.40;;;;;;6345143;22;20138;-82
2023/04/07 02:43:05;;;;;;;0.90;0.90;;;17.80;48.40;;;;;;6344871;22;20578;-81
2023/04/07 02:45:31;;;;;;;1.00;0.90;;;17.80;48.50;;;;;;6345383;22;20575;-81
2023/04/07 02:47:57;;;;;;;0.88;0.88;;;17.70;48.40;;;;;;6344479;22;20132;-82
2023/04/07 02:50:27;;;;;;;0.90;0.90;;;17.80;48.50;;;;;;6290166;22;20147;-82
2023/04/07 02:52:53;;;;;;;0.80;0.80;;;17.70;48.30;;;;;;6264725;22;20147;-83
2023/04/07 02:55:19;;;;;;;1.45;0.90;;;17.70;48.60;;;;;;6316050;22;20158;-81
2023/04/07 02:57:45;;;;;;;1.00;0.90;;;17.70;48.50;;;;;;6344537;22;20131;-81
2023/04/07 03:00:11;;;;;;;0.70;0.70;;;17.70;48.60;;;;;;6345091;22;20135;-82
2023/04/07 03:02:37;;;;;;;0.80;0.80;;;17.70;48.50;;;;;;6343968;22;20135;-81
2023/04/07 03:05:04;;;;;;;0.80;0.80;;;17.70;48.50;;;;;;6345033;22;20138;-82
2023/04/07 03:07:31;;;;;;;1.15;1.05;;;17.70;48.50;;;;;;6344489;22;20164;-82
2023/04/07 03:10:00;;;;;;;0.80;0.80;;;17.70;48.70;;;;;;6345098;22;20124;-81
2023/04/07 03:12:26;;;;;;;0.80;0.80;;;17.70;48.60;;;;;;6264567;22;20642;-80
2023/04/07 03:14:52;;;;;;;0.93;0.80;;;17.70;48.70;;;;;;6344803;22;20128;-81
2023/04/07 03:17:17;;;;;;;0.70;0.70;;;17.70;48.60;;;;;;6345104;22;20185;-83
2023/04/07 03:19:50;;;;;;;0.80;0.80;;;17.70;48.70;;;;;;6317335;22;20151;-82
2023/04/07 03:22:16;;;;;;;1.10;1.00;;;17.70;48.70;;;;;;6265899;22;20207;-81
2023/04/07 03:24:42;;;;;;;1.00;0.90;;;17.70;48.70;;;;;;6344965;22;20160;-83
2023/04/07 03:27:08;;;;;;;1.10;1.00;;;17.70;48.70;;;;;;6344493;22;20491;-82
2023/04/07 03:29:34;;;;;;;1.20;0.93;;;17.70;48.70;;;;;;6316917;22;20143;-82
2023/04/07 03:32:00;;;;;;;0.90;0.90;;;17.70;48.70;;;;;;6344483;22;20620;-81
2023/04/07 03:34:26;;;;;;;1.10;1.00;;;17.70;48.80;;;;;;6343810;22;20214;-80
2023/04/07 03:36:52;;;;;;;0.68;0.68;;;17.70;48.70;;;;;;6343950;22;20131;-82
2023/04/07 03:39:21;;;;;;;1.05;0.85;;;17.70;48.70;;;;;;6344043;22;20132;-82
2023/04/07 03:41:47;;;;;;;0.80;0.80;;;17.70;48.80;;;;;;6264674;22;20459;-81
2023/04/07 03:44:14;;;;;;;0.93;0.93;;;17.70;48.70;;;;;;6345119;22;20151;-83
2023/04/07 03:46:40;;;;;;;0.80;0.80;;;17.70;48.70;;;;;;6344454;22;20561;-82
2023/04/07 03:49:06;;;;;;;1.00;0.88;;;17.60;48.70;;;;;;6316529;22;20470;-81
2023/04/07 03:51:33;;;;;;;0.95;0.90;;;17.70;48.80;;;;;;6344091;22;20128;-82
2023/04/07 03:53:59;;;;;;;1.02;0.90;;;17.70;48.90;;;;;;6343318;22;20207;-82
2023/04/07 03:56:25;;;;;;;1.10;0.93;;;17.70;48.70;;;;;;6290721;22;20197;-81
2023/04/07 03:58:51;;;;;;;1.02;0.73;;;17.70;48.80;;;;;;6344729;22;20562;-82
2023/04/07 04:01:17;;;;;;;0.98;0.85;;;17.70;48.80;;;;;;6316616;22;20131;-81
2023/04/07 04:03:43;;;;;;;0.80;0.77;;;17.70;48.60;;;;;;6343959;22;20132;-81
2023/04/07 04:06:12;;;;;;;0.93;0.80;;;17.70;48.70;;;;;;6343876;22;20199;-81
2023/04/07 04:08:42;;;;;;;1.10;1.00;;;17.60;48.70;;;;;;6264153;22;20156;-81
2023/04/07 04:11:08;;;;;;;0.80;0.80;;;17.70;48.80;;;;;;6239105;22;20154;-82
2023/04/07 04:13:34;;;;;;;0.95;0.88;;;17.70;48.90;;;;;;6345024;22;20183;-82
2023/04/07 04:16:00;;;;;;;0.88;0.88;;;17.70;48.90;;;;;;6344183;22;20204;-82
2023/04/07 04:18:26;;;;;;;0.70;0.70;;;17.60;48.90;;;;;;6344123;22;20131;-82
2023/04/07 04:20:52;;;;;;;1.00;0.90;;;17.70;49.10;;;;;;6344462;22;20146;-82
2023/04/07 04:23:18;;;;;;;1.05;0.95;;;17.60;48.90;;;;;;6344276;22;20551;-81
2023/04/07 04:25:48;;;;;;;1.10;1.00;;;17.60;49.00;;;;;;6344398;22;20184;-83
2023/04/07 04:28:18;;;;;;;1.00;0.90;;;17.70;48.80;;;;;;6263732;22;20630;-82
2023/04/07 04:30:44;;;;;;;1.42;0.90;;;17.70;49.10;;;;;;6264429;22;20236;-81
2023/04/07 04:33:13;;;;;;;0.90;0.90;;;17.60;49.00;;;;;;6343282;22;20555;-81
2023/04/07 04:35:40;;;;;;;1.20;0.88;;;17.60;48.80;;;;;;6264167;22;20155;-82
2023/04/07 04:38:06;;;;;;;1.20;1.10;;;17.70;49.00;;;;;;6343656;22;20128;-82
2023/04/07 04:40:32;;;;;;;0.85;0.85;;;17.70;48.90;;;;;;6343913;22;20594;-83
2023/04/07 04:42:57;;;;;;;0.82;0.82;;;17.70;48.90;;;;;;6345203;22;20128;-81
2023/04/07 04:45:24;;;;;;;1.25;0.88;;;17.70;48.80;;;;;;6343614;22;20132;-82
2023/04/07 04:47:50;;;;;;;0.95;0.80;;;17.60;48.90;;;;;;6343965;22;20194;-82
2023/04/07 04:50:16;;;;;;;0.77;0.77;;;17.60;48.90;;;;;;6344298;22;20128;-80
2023/04/07 04:52:42;;;;;;;0.80;0.80;;;17.70;48.90;;;;;;6316664;22;20207;-81
2023/04/07 04:55:08;;;;;;;1.20;1.00;;;17.70;49.10;;;;;;6343382;22;20128;-81
2023/04/07 04:57:35;;;;;;;0.70;0.70;;;17.70;48.90;;;;;;6343236;22;20499;-82
2023/04/07 05:00:03;;;;;;;1.10;1.00;;;17.70;49.10;;;;;;6343798;22;20478;-82
2023/04/07 05:02:32;;;;;;;0.98;0.85;;;17.60;49.00;;;;;;6344189;22;20151;-82
2023/04/07 05:04:58;;;;;;;1.35;1.25;;;17.70;49.10;;;;;;6263731;22;20579;-83
2023/04/07 05:07:24;;;;;;;1.10;1.00;;;17.70;49.00;;;;;;6343145;22;20166;-81
2023/04/07 05:09:50;;;;;;;1.58;0.90;;;17.60;49.10;;;;;;6343878;22;20636;-81
2023/04/07 05:12:16;;;;;;;1.20;1.00;;;17.60;49.20;;;;;;6343591;22;20179;-80
2023/04/07 05:14:42;;;;;;;0.88;0.82;;;17.60;49.10;;;;;;6317386;22;20139;-83
2023/04/07 05:17:12;;;;;;;0.85;0.85;;;17.60;49.00;;;;;;6346015;22;20140;-80
2023/04/07 05:19:38;;;;;;;0.82;0.82;;;17.60;49.20;;;;;;6240454;22;20158;-81
2023/04/07 05:22:03;;;;;;;0.82;0.80;;;17.60;49.80;;;;;;6345547;22;20132;-81
2023/04/07 05:24:29;;;;;;;1.15;1.05;;;17.60;49.20;;;;;;6345855;22;20143;-83
2023/04/07 05:26:55;;;;;;;1.00;0.90;;;17.60;49.20;;;;;;6345569;22;20159;-84
2023/04/07 05:29:22;;;;;;;1.00;0.90;;;17.60;49.30;;;;;;6345406;22;20127;-83
2023/04/07 05:31:48;;;;;;;0.80;0.75;;;17.60;49.10;;;;;;6345727;22;20135;-82
2023/04/07 05:34:17;;;;;;;1.23;1.13;;;17.60;49.30;;;;;;6344514;22;20134;-82
2023/04/07 05:36:44;;;;;;;1.13;1.02;;;17.60;49.30;;;;;;6214970;22;20161;-82
2023/04/07 05:39:10;;;;;;;1.02;0.88;;;17.60;49.00;;;;;;6319090;22;20151;-82
2023/04/07 05:41:40;;;;;;;0.95;0.88;;;17.50;49.10;;;;;;6346119;22;20135;-81
2023/04/07 05:44:05;;;;;;;0.88;0.82;;;17.60;49.20;;;;;;6265913;22;20166;-81
2023/04/07 05:46:31;;;;;;;0.75;0.75;;;17.60;49.30;;;;;;6345214;22;20163;-82
2023/04/07 05:48:57;;;;;;;1.10;0.93;;;17.60;49.30;;;;;;6315589;22;20570;-81
2023/04/07 05:51:23;;;;;;;0.80;0.80;;;17.60;49.30;;;;;;6312667;22;20448;-81
2023/04/07 05:53:49;;;;;;;0.80;0.80;;;17.60;49.70;;;;;;6340032;22;20559;-81
2023/04/07 05:56:15;;;;;;;1.08;0.98;;;17.60;49.20;;;;;;6340034;22;20203;-82
2023/04/07 05:58:41;;;;;;;1.00;0.90;;;17.60;49.20;;;;;;6312469;22;20208;-82
2023/04/07 06:01:06;;;;;;;0.90;0.90;;;17.60;49.20;;;;;;6340138;22;20567;-82
2023/04/07 06:03:32;;;;;;;0.70;0.70;;;17.60;49.20;;;;;;6340220;22;20207;-82
2023/04/07 06:05:58;;;;;;;0.80;0.80;;;17.60;49.30;;;;;;6340655;22;20670;-84
2023/04/07 06:08:23;;;;;;;0.93;0.85;;;17.60;49.30;;;;;;6340695;22;20586;-83
2023/04/07 06:10:49;;;;;;;1.88;1.00;;;17.60;49.30;;;;;;6340593;22;20123;-82
2023/04/07 06:13:15;;;;;;;0.80;0.80;;;17.60;49.20;;;;;;6340605;22;20687;-82
2023/04/07 06:15:41;;;;;;;0.85;0.85;;;17.60;49.30;;;;;;6341126;22;20132;-83
2023/04/07 06:18:06;;;;;;;0.73;0.73;;;17.60;49.30;;;;;;6340959;22;20155;-81
2023/04/07 06:20:32;;;;;;;0.75;0.75;;;17.60;49.40;;;;;;6342053;22;20461;-81
2023/04/07 06:22:58;;;;;;;1.35;0.90;;;17.60;49.30;;;;;;6341472;22;20575;-82
2023/04/07 06:25:25;;;;;;;1.00;0.90;;;17.60;49.40;;;;;;6341892;22;20140;-82
2023/04/07 06:27:50;;;;;;;0.80;0.80;;;17.60;49.30;;;;;;6313872;22;20159;-82
2023/04/07 06:30:16;;;;;;;1.02;0.88;;;17.60;49.50;;;;;;6313276;22;20189;-82
2023/04/07 06:32:43;;;;;;;0.88;0.82;;;17.60;49.40;;;;;;6341578;22;20571;-81
2023/04/07 06:35:09;;;;;;;2.28;0.90;;;17.60;49.40;;;;;;6315392;22;20135;-81
2023/04/07 06:37:38;;;;;;;0.80;0.80;;;17.60;49.40;;;;;;6341796;22;20142;-83
2023/04/07 06:40:05;;;;;;;1.00;0.90;;;17.60;49.30;;;;;;6316351;22;20482;-82
2023/04/07 06:42:31;;;;;;;0.95;0.90;;;17.60;49.10;;;;;;6344110;22;20188;-81
2023/04/07 06:44:57;;;;;;;0.82;0.80;;;17.70;48.60;;;;;;6344380;22;20136;-81
2023/04/07 06:47:24;;;;;;;0.73;0.73;;;17.80;49.00;;;;;;6317093;22;20490;-82
2023/04/07 06:49:49;;;;;;;1.00;0.70;;;17.80;48.50;;;;;;6344586;22;20232;-83
2023/04/07 06:52:15;;;;;;;0.60;0.60;;;17.90;48.50;;;;;;6342956;22;20128;-81
2023/04/07 06:54:41;;;;;;;0.73;0.73;;;17.90;48.30;;;;;;6316029;22;20128;-82
2023/04/07 06:57:12;;;;;;;0.90;0.80;;;17.90;48.10;;;;;;6344228;22;20181;-81
2023/04/07 06:59:38;;;;;;;3.42;0.85;;;18.00;48.00;;;;;;6264483;22;20232;-83
2023/04/07 07:02:07;;;;;;;0.70;0.70;;;18.00;47.90;;;;;;6317052;22;20567;-82
2023/04/07 07:04:33;;;;;;;1.20;0.63;;;18.00;48.20;;;;;;6290473;22;20208;-81
2023/04/07 07:06:59;;;;;;;0.93;0.63;;;18.00;48.20;;;;;;6315639;22;20169;-82
2023/04/07 07:09:26;;;;;;;0.90;0.90;;;18.00;48.30;;;;;;6344572;22;20196;-82
2023/04/07 07:11:52;;;;;;;1.83;0.95;;;18.00;48.50;;;;;;6344662;22;20189;-81
2023/04/07 07:14:17;;;;;;;0.85;0.82;;;18.00;49.60;;;;;;6315897;22;20147;-81
2023/04/07 07:16:43;;;;;;;0.93;0.77;;;17.90;49.10;;;;;;6343026;22;20136;-83
2023/04/07 07:19:09;;;;;;;1.23;0.80;;;17.90;48.70;;;;;;6343268;22;20215;-81
2023/04/07 07:21:36;;;;;;;0.77;0.77;;;17.90;48.80;;;;;;6315966;22;20206;-82
2023/04/07 07:24:01;;;;;;;0.70;0.70;;;17.90;48.60;;;;;;6290368;22;20570;-83
2023/04/07 07:26:27;;;;;;;1.15;0.60;;;17.90;48.70;;;;;;6343209;22;20166;-84
2023/04/07 07:28:53;;;;;;;0.60;0.60;;;17.90;48.20;;;;;;6341804;22;20212;-81
2023/04/07 07:31:19;;;;;;;1.00;0.80;;;18.00;48.40;;;;;;6339640;22;20132;-81
2023/04/07 07:33:47;;;;;;;0.90;0.80;;;18.00;48.30;;;;;;6342041;22;20131;-82
2023/04/07 07:36:16;;;;;;;1.50;0.70;;;18.00;48.50;;;;;;6343381;22;20131;-82
2023/04/07 07:38:54;;;;;;;1.48;0.80;;;18.00;48.40;;;;;;6266004;22;20474;-81
2023/04/07 07:41:20;;;;;;;0.60;0.60;;;18.00;48.40;;;;;;6265219;22;20155;-81
2023/04/07 07:43:48;;;;;;;0.60;0.60;;;18.00;48.30;;;;;;6343353;22;20143;-81
2023/04/07 07:46:13;;;;;;;0.70;0.70;;;18.00;48.00;;;;;;6346273;22;20250;-82
2023/04/07 07:48:39;;;;;;;1.92;0.70;;;18.00;48.60;;;;;;6345200;22;20131;-81
2023/04/07 07:51:06;;;;;;;0.70;0.60;;;18.00;48.50;;;;;;6316747;22;20583;-81
2023/04/07 07:53:38;;;;;;;0.70;0.65;;;18.10;48.20;;;;;;6240694;22;20514;-81
2023/04/07 07:56:08;;;;;;;0.65;0.60;;;18.10;48.30;;;;;;6265112;22;20174;-81
2023/04/07 07:58:35;;;;;;;0.75;0.65;;;18.00;48.50;;;;;;6265765;22;20151;-82
2023/04/07 08:01:02;;;;;;;0.73;0.65;;;18.10;48.10;;;;;;6266136;22;20232;-83
2023/04/07 08:03:29;;;;;;;1.23;0.65;;;18.10;48.10;;;;;;6264399;22;20570;-82
2023/04/07 08:05:55;;;;;;;0.60;0.60;;;18.10;48.40;;;;;;6265426;22;20155;-80
2023/04/07 08:08:21;;;;;;;0.60;0.60;;;18.10;48.10;;;;;;6266331;22;20154;-82
2023/04/07 08:10:47;;;;;;;1.85;0.60;;;18.10;48.30;;;;;;6317911;22;20131;-81
2023/04/07 08:13:13;;;;;;;1.80;0.60;;;18.10;48.20;;;;;;6342632;22;20265;-80
2023/04/07 08:15:39;;;;;;;0.63;0.63;;;18.10;48.10;;;;;;6341815;22;20135;-82
2023/04/07 08:18:05;;;;;;;0.80;0.80;;;18.10;48.30;;;;;;6312940;22;20155;-81
2023/04/07 08:20:31;;;;;;;1.55;0.50;;;18.20;48.10;;;;;;6341463;22;20154;-80
2023/04/07 08:22:59;;;;;;;0.75;0.63;;;18.20;48.10;;;;;;6314482;22;20602;-82
2023/04/07 08:25:25;;;;;;;1.77;0.75;;;18.20;48.00;;;;;;6341798;22;20463;-83
2023/04/07 08:27:50;;;;;;;0.55;0.55;;;18.20;48.00;;;;;;6315415;22;20261;-81
2023/04/07 08:30:16;;;;;;;0.50;0.50;;;18.10;48.00;;;;;;6343093;22;20139;-80
2023/04/07 08:32:43;;;;;;;0.98;0.60;;;18.20;47.80;;;;;;6317396;22;20181;-83
2023/04/07 08:35:09;;;;;;;0.40;0.40;;;18.20;48.10;;;;;;6315052;22;20154;-83
2023/04/07 08:37:46;;;;;;;1.02;0.52;;;18.20;48.00;;;;;;6313455;22;20155;-82
2023/04/07 08:40:14;;;;;;;0.85;0.63;;;18.20;48.00;;;;;;6312943;22;20162;-81
2023/04/07 08:42:45;;;;;;;1.35;0.60;;;18.20;48.20;;;;;;6260186;22;20182;-81
2023/04/07 08:45:13;;;;;;;0.93;0.50;;;18.20;48.50;;;;;;6236595;22;20598;-82
2023/04/07 08:47:41;;;;;;;0.63;0.40;;;18.20;48.20;;;;;;6210195;22;20473;-82
2023/04/07 08:50:10;;;;;;;1.65;0.55;;;18.20;47.90;;;;;;6235931;22;20147;-82
2023/04/07 08:52:56;;;;;;;0.43;0.43;;;18.20;48.30;;;;;;6261961;22;20175;-82
2023/04/07 08:55:25;;;;;;;0.50;0.50;;;18.20;48.20;;;;;;6287960;22;20154;-82
2023/04/07 08:57:52;;;;;;;0.60;0.60;;;18.20;48.20;;;;;;6262706;22;20210;-82
2023/04/07 09:00:20;;;;;;;0.40;0.40;;;18.30;48.30;;;;;;6236577;22;20163;-82
2023/04/07 09:02:48;;;;;;;0.50;0.50;;;18.20;48.50;;;;;;6261131;22;20234;-82
2023/04/07 09:05:15;;;;;;;0.45;0.45;;;18.20;48.30;;;;;;6261446;22;20288;-82
2023/04/07 09:07:42;;;;;;;0.80;0.50;;;18.30;47.90;;;;;;6234785;22;20183;-82
2023/04/07 09:10:09;;;;;;;0.40;0.40;;;18.30;48.10;;;;;;6260620;22;20148;-81
2023/04/07 09:12:35;;;;;;;0.80;0.50;;;18.30;47.70;;;;;;6248079;22;20206;-82
2023/04/07 09:15:03;;;;;;;0.70;0.45;;;18.30;47.80;;;;;;6281631;22;20168;-82
2023/04/07 09:17:30;;;;;;;0.70;0.50;;;18.40;48.10;;;;;;6230612;22;20221;-81
2023/04/07 09:19:57;;;;;;;0.47;0.47;;;18.30;47.90;;;;;;6229147;22;20160;-81
2023/04/07 09:22:35;;;;;;;0.50;0.50;;;18.30;48.10;;;;;;6204943;22;20162;-82
2023/04/07 09:25:14;;;;;;;1.40;0.40;;;18.30;48.20;;;;;;6281530;22;20197;-82
2023/04/07 09:27:52;;;;;;;0.30;0.30;;;18.30;47.80;;;;;;6282510;22;20163;-82
2023/04/07 09:30:19;;;;;;;1.42;0.60;;;18.40;47.90;;;;;;6237259;22;20154;-82
2023/04/07 09:32:45;;;;;;;1.85;0.38;;;18.30;48.10;;;;;;6309365;22;20182;-82
2023/04/07 09:35:11;;;;;;;0.50;0.50;;;18.30;48.60;;;;;;6309064;22;20133;-81
2023/04/07 09:37:38;;;;;;;0.40;0.40;;;18.30;48.90;;;;;;6281732;22;20242;-81
2023/04/07 09:40:04;;;;;;;0.57;0.50;;;18.20;48.90;;;;;;6309585;22;20132;-83
2023/04/07 09:42:31;;;;;;;0.43;0.43;;;18.30;49.30;;;;;;6309584;22;20186;-82
2023/04/07 09:44:59;;;;;;;0.50;0.50;;;18.30;48.50;;;;;;6282902;22;20143;-82
2023/04/07 09:47:28;;;;;;;1.33;0.40;;;18.30;48.80;;;;;;6281832;22;20582;-81
2023/04/07 09:49:54;;;;;;;0.50;0.50;;;18.30;48.80;;;;;;6281680;22;20124;-81
2023/04/07 09:52:25;;;;;;;1.13;0.45;;;18.30;48.60;;;;;;6231603;22;20234;-84
2023/04/07 09:54:51;;;;;;;0.93;0.40;;;18.20;48.70;;;;;;6312201;22;20135;-82
2023/04/07 09:57:17;;;;;;;1.85;0.50;;;18.30;48.50;;;;;;6283859;22;20143;-80
2023/04/07 09:59:43;;;;;;;0.40;0.40;;;18.40;48.30;;;;;;6309907;22;20207;-83
2023/04/07 10:02:10;;;;;;;0.65;0.47;;;18.40;48.70;;;;;;6283303;22;20136;-83
2023/04/07 10:04:36;;;;;;;0.30;0.30;;;18.30;48.70;;;;;;6259230;22;20171;-82
2023/04/07 10:07:02;;;;;;;0.55;0.40;;;18.40;48.30;;;;;;6310090;22;20156;-81
2023/04/07 10:09:29;;;;;;;0.90;0.40;;;18.30;48.60;;;;;;6286860;22;20124;-81
2023/04/07 10:11:57;;;;;;;0.50;0.35;;;18.30;48.60;;;;;;6261997;22;20140;-82
2023/04/07 10:14:27;;;;;;;0.73;0.35;;;18.30;48.80;;;;;;6287628;22;20128;-82
2023/04/07 10:16:53;;;;;;;0.45;0.32;;;18.30;48.90;;;;;;6312967;22;20136;-82
2023/04/07 10:19:19;;;;;;;0.30;0.30;;;18.30;48.90;;;;;;6313206;22;20128;-82
2023/04/07 10:21:45;;;;;;;0.40;0.40;;;18.40;48.40;;;;;;6312900;22;20143;-82
2023/04/07 10:24:36;;;;;;;0.30;0.30;;;18.30;48.40;;;;;;6341258;22;20593;-81
2023/04/07 10:27:06;;;;;;;0.52;0.52;;;18.40;48.30;;;;;;6340536;22;20170;-82
2023/04/07 10:29:34;;;;;;;0.60;0.40;;;18.40;48.20;;;;;;6312450;22;20128;-82
2023/04/07 10:32:01;;;;;;;0.30;0.30;;;18.40;48.10;;;;;;6312139;22;20512;-82
2023/04/07 10:34:56;;;;;;;1.75;0.40;;;18.40;48.60;;;;;;6339218;22;20135;-82
2023/04/07 10:37:23;;;;;;;0.47;0.40;;;18.40;48.10;;;;;;6313469;22;20219;-81
2023/04/07 10:39:50;;;;;;;0.70;0.40;;;18.40;48.50;;;;;;6339912;22;20143;-83
2023/04/07 10:42:43;;;;;;;0.40;0.40;;;18.40;48.20;;;;;;6311683;22;20150;-81
2023/04/07 10:45:11;;;;;;;0.75;0.45;;;18.40;48.10;;;;;;6312105;22;20214;-81
2023/04/07 10:48:08;;;;;;;0.60;0.50;;;18.50;48.00;;;;;;6340020;22;20163;-82
2023/04/07 10:50:35;;;;;;;0.45;0.40;;;18.50;48.00;;;;;;6340420;22;20214;-82
2023/04/07 10:53:11;;;;;;;0.30;0.30;;;18.50;48.10;;;;;;6339633;22;20132;-81
2023/04/07 10:55:38;;;;;;;0.40;0.30;;;18.40;48.20;;;;;;6312136;22;20123;-82
2023/04/07 10:58:22;;;;;;;1.90;0.40;;;18.50;48.40;;;;;;6311881;22;20159;-82
2023/04/07 11:01:18;;;;;;;0.57;0.40;;;18.40;48.40;;;;;;6339501;22;20131;-81
2023/04/07 11:03:55;;;;;;;0.77;0.52;;;18.40;48.30;;;;;;6292612;22;20147;-82
2023/04/07 11:06:22;;;;;;;0.30;0.30;;;18.40;48.30;;;;;;6339713;22;20187;-83
2023/04/07 11:08:47;;;;;;;0.47;0.40;;;18.40;48.30;;;;;;6312993;22;20210;-81
2023/04/07 11:11:14;;;;;;;0.68;0.38;;;18.40;48.20;;;;;;6285900;22;20175;-81
2023/04/07 11:13:48;;;;;;;0.40;0.40;;;18.40;48.20;;;;;;6339545;22;20187;-82
2023/04/07 11:16:15;;;;;;;0.63;0.50;;;18.40;48.30;;;;;;6312494;22;20566;-81
2023/04/07 11:18:41;;;;;;;0.60;0.57;;;18.40;48.20;;;;;;6339650;22;20139;-83
2023/04/07 11:21:07;;;;;;;0.43;0.40;;;18.40;48.10;;;;;;6339426;22;20523;-82
2023/04/07 11:23:41;;;;;;;0.43;0.40;;;18.40;48.30;;;;;;6339367;22;20127;-82
2023/04/07 11:26:07;;;;;;;1.67;0.40;;;18.40;48.40;;;;;;6312138;22;20136;-81
2023/04/07 11:28:33;;;;;;;0.43;0.40;;;18.40;48.20;;;;;;6339549;22;20128;-81
2023/04/07 11:30:58;;;;;;;1.40;0.40;;;18.40;48.30;;;;;;6287286;22;20237;-82
2023/04/07 11:33:30;;;;;;;1.85;0.38;;;18.40;48.20;;;;;;6286704;22;20134;-83
2023/04/07 11:35:58;;;;;;;0.50;0.50;;;18.40;48.50;;;;;;6339101;22;20127;-82
2023/04/07 11:38:29;;;;;;;0.80;0.57;;;18.40;48.50;;;;;;6285962;22;20132;-82
2023/04/07 11:40:55;;;;;;;2.42;0.50;;;18.30;48.50;;;;;;6273915;22;20462;-82
2023/04/07 11:43:24;;;;;;;1.38;0.43;;;18.40;48.30;;;;;;6273827;22;20643;-83
2023/04/07 11:46:05;;;;;;;0.47;0.32;;;18.40;48.20;;;;;;6248797;22;20145;-82
2023/04/07 11:48:32;;;;;;;0.30;0.30;;;18.40;48.00;;;;;;6274124;22;20141;-83
2023/04/07 11:50:58;;;;;;;0.80;0.40;;;18.40;48.40;;;;;;6274356;22;20197;-83
2023/04/07 11:53:28;;;;;;;0.85;0.32;;;18.40;48.30;;;;;;6248588;22;20647;-82
2023/04/07 11:56:08;;;;;;;0.40;0.40;;;18.40;48.30;;;;;;6274445;22;20578;-83
2023/04/07 11:58:34;;;;;;;0.40;0.40;;;18.40;48.90;;;;;;6248829;22;20177;-82
2023/04/07 12:01:09;;;;;;;0.30;0.30;;;18.40;48.70;;;;;;6275158;22;20152;-82
2023/04/07 12:03:36;;;;;;;0.73;0.40;;;18.30;48.20;;;;;;6250727;22;20546;-81
2023/04/07 12:06:02;;;;;;;1.35;0.40;;;18.30;48.30;;;;;;6274160;22;20144;-83
2023/04/07 12:08:43;;;;;;;2.42;0.40;;;18.30;48.90;;;;;;6274301;22;20133;-81
2023/04/07 12:11:09;;;;;;;0.30;0.30;;;18.30;48.50;;;;;;6288473;22;20155;-81
2023/04/07 12:13:35;;;;;;;0.60;0.50;;;18.30;48.60;;;;;;6285534;22;20218;-83
2023/04/07 12:16:02;;;;;;;0.40;0.40;;;18.40;48.60;;;;;;6339112;22;20193;-81
2023/04/07 12:18:28;;;;;;;0.47;0.43;;;18.40;48.60;;;;;;6338965;22;20124;-81
2023/04/07 12:20:53;;;;;;;0.52;0.43;;;18.40;48.40;;;;;;6285687;22;20127;-81
2023/04/07 12:23:19;;;;;;;1.88;0.32;;;18.40;48.40;;;;;;6339936;22;20131;-81
2023/04/07 12:25:44;;;;;;;0.63;0.43;;;18.40;49.10;;;;;;6341412;22;20139;-82
2023/04/07 12:28:10;;;;;;;0.60;0.50;;;18.30;49.10;;;;;;6340854;22;20170;-81
2023/04/07 12:30:36;;;;;;;1.38;0.40;;;18.30;49.50;;;;;;6313209;22;20502;-83
2023/04/07 12:33:02;;;;;;;0.40;0.40;;;18.30;48.90;;;;;;6340507;22;20132;-82
2023/04/07 12:35:29;;;;;;;0.50;0.50;;;18.30;48.70;;;;;;6340904;22;20222;-82
2023/04/07 12:37:56;;;;;;;0.40;0.40;;;18.30;48.50;;;;;;6312741;22;20148;-82
2023/04/07 12:40:22;;;;;;;0.82;0.45;;;18.40;48.40;;;;;;6340670;22;20139;-81
2023/04/07 12:42:48;;;;;;;0.63;0.40;;;18.40;48.30;;;;;;6340356;22;20512;-82
2023/04/07 12:45:14;;;;;;;0.32;0.32;;;18.40;48.20;;;;;;6341176;22;20143;-83
2023/04/07 12:47:41;;;;;;;0.40;0.40;;;18.40;48.30;;;;;;6340724;22;20163;-81
2023/04/07 12:50:08;;;;;;;0.30;0.30;;;18.40;48.20;;;;;;6341510;22;20202;-83
2023/04/07 12:52:33;;;;;;;0.20;0.20;;;18.40;48.20;;;;;;6315001;22;20144;-81